sensor_id;sensor_type;location;lat;lon;timestamp;P1;durP1;ratioP1;P2;durP2;ratioP2
4268;SDS011;2148;48.554;7.834;2023-10-19T00:01:13;269.00;;;258.77;;
4268;SDS011;2148;48.554;7.834;2023-10-19T00:03:40;213.90;;;205.53;;
4268;SDS011;2148;48.554;7.834;2023-10-19T00:06:05;227.43;;;218.33;;
4268;SDS011;2148;48.554;7.834;2023-10-19T00:08:31;217.47;;;208.60;;
4268;SDS011;2148;48.554;7.834;2023-10-19T00:11:06;212.43;;;203.67;;
4268;SDS011;2148;48.554;7.834;2023-10-19T00:13:32;184.30;;;176.90;;
4268;SDS011;2148;48.554;7.834;2023-10-19T00:15:58;209.60;;;201.10;;
4268;SDS011;2148;48.554;7.834;2023-10-19T00:18:24;211.63;;;203.33;;
4268;SDS011;2148;48.554;7.834;2023-10-19T00:20:50;238.10;;;228.33;;
4268;SDS011;2148;48.554;7.834;2023-10-19T00:23:18;185.90;;;178.10;;
4268;SDS011;2148;48.554;7.834;2023-10-19T00:25:49;224.87;;;216.17;;
4268;SDS011;2148;48.554;7.834;2023-10-19T00:28:16;214.67;;;206.17;;
4268;SDS011;2148;48.554;7.834;2023-10-19T00:30:42;229.17;;;219.50;;
4268;SDS011;2148;48.554;7.834;2023-10-19T00:33:10;183.30;;;175.20;;
4268;SDS011;2148;48.554;7.834;2023-10-19T00:35:42;217.53;;;208.47;;
4268;SDS011;2148;48.554;7.834;2023-10-19T00:38:11;223.07;;;214.50;;
4268;SDS011;2148;48.554;7.834;2023-10-19T00:40:49;239.10;;;229.57;;
4268;SDS011;2148;48.554;7.834;2023-10-19T00:43:30;189.53;;;182.07;;
4268;SDS011;2148;48.554;7.834;2023-10-19T00:46:02;204.03;;;196.23;;
4268;SDS011;2148;48.554;7.834;2023-10-19T00:48:29;200.83;;;193.17;;
4268;SDS011;2148;48.554;7.834;2023-10-19T00:50:57;223.00;;;213.70;;
4268;SDS011;2148;48.554;7.834;2023-10-19T00:53:33;213.87;;;205.27;;
4268;SDS011;2148;48.554;7.834;2023-10-19T00:56:00;238.20;;;229.23;;
4268;SDS011;2148;48.554;7.834;2023-10-19T00:58:28;233.60;;;224.53;;
4268;SDS011;2148;48.554;7.834;2023-10-19T01:00:55;196.47;;;188.40;;
4268;SDS011;2148;48.554;7.834;2023-10-19T01:03:20;229.13;;;220.00;;
4268;SDS011;2148;48.554;7.834;2023-10-19T01:05:45;196.87;;;189.07;;
4268;SDS011;2148;48.554;7.834;2023-10-19T01:08:13;243.27;;;233.63;;
4268;SDS011;2148;48.554;7.834;2023-10-19T01:10:57;203.03;;;195.20;;
4268;SDS011;2148;48.554;7.834;2023-10-19T01:13:24;218.17;;;209.77;;
4268;SDS011;2148;48.554;7.834;2023-10-19T01:15:53;228.50;;;219.33;;
4268;SDS011;2148;48.554;7.834;2023-10-19T01:18:19;193.33;;;185.50;;
4268;SDS011;2148;48.554;7.834;2023-10-19T01:20:44;221.00;;;212.50;;
4268;SDS011;2148;48.554;7.834;2023-10-19T01:23:15;212.73;;;204.30;;
4268;SDS011;2148;48.554;7.834;2023-10-19T01:25:55;243.77;;;234.33;;
4268;SDS011;2148;48.554;7.834;2023-10-19T01:28:21;223.97;;;215.10;;
4268;SDS011;2148;48.554;7.834;2023-10-19T01:31:09;208.50;;;199.97;;
4268;SDS011;2148;48.554;7.834;2023-10-19T01:33:42;211.00;;;202.37;;
4268;SDS011;2148;48.554;7.834;2023-10-19T01:36:09;203.47;;;195.03;;
4268;SDS011;2148;48.554;7.834;2023-10-19T01:38:39;210.17;;;201.60;;
4268;SDS011;2148;48.554;7.834;2023-10-19T01:41:06;221.67;;;213.03;;
4268;SDS011;2148;48.554;7.834;2023-10-19T01:43:39;212.07;;;203.80;;
4268;SDS011;2148;48.554;7.834;2023-10-19T01:49:26;197.13;;;188.73;;
4268;SDS011;2148;48.554;7.834;2023-10-19T01:51:52;182.53;;;174.70;;
4268;SDS011;2148;48.554;7.834;2023-10-19T01:54:19;216.83;;;208.37;;
4268;SDS011;2148;48.554;7.834;2023-10-19T01:56:49;202.77;;;194.53;;
4268;SDS011;2148;48.554;7.834;2023-10-19T01:59:16;217.10;;;208.77;;
4268;SDS011;2148;48.554;7.834;2023-10-19T02:01:41;202.93;;;195.03;;
4268;SDS011;2148;48.554;7.834;2023-10-19T02:04:10;205.30;;;197.27;;
4268;SDS011;2148;48.554;7.834;2023-10-19T02:06:38;215.33;;;207.17;;
4268;SDS011;2148;48.554;7.834;2023-10-19T02:11:52;201.93;;;193.73;;
4268;SDS011;2148;48.554;7.834;2023-10-19T02:14:20;213.40;;;204.80;;
4268;SDS011;2148;48.554;7.834;2023-10-19T02:16:49;210.10;;;201.77;;
4268;SDS011;2148;48.554;7.834;2023-10-19T02:19:22;199.30;;;191.23;;
4268;SDS011;2148;48.554;7.834;2023-10-19T02:21:48;218.63;;;209.83;;
4268;SDS011;2148;48.554;7.834;2023-10-19T02:24:14;259.40;;;249.10;;
4268;SDS011;2148;48.554;7.834;2023-10-19T02:26:40;207.83;;;199.00;;
4268;SDS011;2148;48.554;7.834;2023-10-19T02:29:06;208.27;;;200.30;;
4268;SDS011;2148;48.554;7.834;2023-10-19T02:31:35;207.07;;;199.20;;
4268;SDS011;2148;48.554;7.834;2023-10-19T02:34:02;211.17;;;203.00;;
4268;SDS011;2148;48.554;7.834;2023-10-19T02:36:29;203.57;;;195.13;;
4268;SDS011;2148;48.554;7.834;2023-10-19T02:38:59;204.20;;;195.87;;
4268;SDS011;2148;48.554;7.834;2023-10-19T02:41:29;211.60;;;203.00;;
4268;SDS011;2148;48.554;7.834;2023-10-19T02:43:54;218.47;;;209.97;;
4268;SDS011;2148;48.554;7.834;2023-10-19T02:46:34;214.97;;;206.27;;
4268;SDS011;2148;48.554;7.834;2023-10-19T02:49:00;213.37;;;204.57;;
4268;SDS011;2148;48.554;7.834;2023-10-19T02:51:26;223.90;;;214.83;;
4268;SDS011;2148;48.554;7.834;2023-10-19T02:53:51;204.97;;;196.63;;
4268;SDS011;2148;48.554;7.834;2023-10-19T02:56:16;220.37;;;211.80;;
4268;SDS011;2148;48.554;7.834;2023-10-19T02:58:43;216.13;;;207.87;;
4268;SDS011;2148;48.554;7.834;2023-10-19T03:01:17;244.93;;;235.70;;
4268;SDS011;2148;48.554;7.834;2023-10-19T03:03:55;232.67;;;223.40;;
4268;SDS011;2148;48.554;7.834;2023-10-19T03:06:25;245.37;;;236.03;;
4268;SDS011;2148;48.554;7.834;2023-10-19T03:08:58;232.27;;;223.20;;
4268;SDS011;2148;48.554;7.834;2023-10-19T03:11:29;211.50;;;202.93;;
4268;SDS011;2148;48.554;7.834;2023-10-19T03:13:55;225.60;;;216.53;;
4268;SDS011;2148;48.554;7.834;2023-10-19T03:16:22;237.60;;;228.20;;
4268;SDS011;2148;48.554;7.834;2023-10-19T03:18:48;226.53;;;217.20;;
4268;SDS011;2148;48.554;7.834;2023-10-19T03:21:15;225.70;;;216.63;;
4268;SDS011;2148;48.554;7.834;2023-10-19T03:23:41;229.67;;;220.53;;
4268;SDS011;2148;48.554;7.834;2023-10-19T03:26:06;215.27;;;206.67;;
4268;SDS011;2148;48.554;7.834;2023-10-19T03:28:50;192.30;;;184.63;;
4268;SDS011;2148;48.554;7.834;2023-10-19T03:31:20;223.07;;;213.97;;
4268;SDS011;2148;48.554;7.834;2023-10-19T03:33:48;203.40;;;194.97;;
4268;SDS011;2148;48.554;7.834;2023-10-19T03:36:25;159.87;;;152.63;;
4268;SDS011;2148;48.554;7.834;2023-10-19T03:38:51;169.90;;;162.50;;
4268;SDS011;2148;48.554;7.834;2023-10-19T03:41:18;157.90;;;150.67;;
4268;SDS011;2148;48.554;7.834;2023-10-19T03:43:47;199.57;;;191.63;;
4268;SDS011;2148;48.554;7.834;2023-10-19T03:46:14;162.57;;;155.73;;
4268;SDS011;2148;48.554;7.834;2023-10-19T03:48:47;195.47;;;187.43;;
4268;SDS011;2148;48.554;7.834;2023-10-19T03:51:12;230.00;;;220.50;;
4268;SDS011;2148;48.554;7.834;2023-10-19T03:53:38;182.57;;;175.03;;
4268;SDS011;2148;48.554;7.834;2023-10-19T03:56:08;266.77;;;256.40;;
4268;SDS011;2148;48.554;7.834;2023-10-19T03:58:36;244.80;;;235.23;;
4268;SDS011;2148;48.554;7.834;2023-10-19T04:01:03;208.93;;;200.80;;
4268;SDS011;2148;48.554;7.834;2023-10-19T04:03:30;215.33;;;207.20;;
4268;SDS011;2148;48.554;7.834;2023-10-19T04:05:56;206.57;;;198.50;;
4268;SDS011;2148;48.554;7.834;2023-10-19T04:08:22;176.30;;;169.30;;
4268;SDS011;2148;48.554;7.834;2023-10-19T04:10:51;220.93;;;212.60;;
4268;SDS011;2148;48.554;7.834;2023-10-19T04:13:35;199.50;;;191.43;;
4268;SDS011;2148;48.554;7.834;2023-10-19T04:16:03;260.30;;;250.50;;
4268;SDS011;2148;48.554;7.834;2023-10-19T04:18:30;205.67;;;197.63;;
4268;SDS011;2148;48.554;7.834;2023-10-19T04:20:56;203.40;;;195.70;;
4268;SDS011;2148;48.554;7.834;2023-10-19T04:23:23;212.07;;;204.27;;
4268;SDS011;2148;48.554;7.834;2023-10-19T04:25:53;217.50;;;209.70;;
4268;SDS011;2148;48.554;7.834;2023-10-19T04:28:21;221.17;;;213.23;;
4268;SDS011;2148;48.554;7.834;2023-10-19T04:30:55;201.03;;;193.70;;
4268;SDS011;2148;48.554;7.834;2023-10-19T04:33:28;134.53;;;128.97;;
4268;SDS011;2148;48.554;7.834;2023-10-19T04:35:55;197.20;;;190.00;;
4268;SDS011;2148;48.554;7.834;2023-10-19T04:38:21;215.17;;;207.13;;
4268;SDS011;2148;48.554;7.834;2023-10-19T04:40:47;200.20;;;192.63;;
4268;SDS011;2148;48.554;7.834;2023-10-19T04:43:12;207.93;;;200.17;;
4268;SDS011;2148;48.554;7.834;2023-10-19T04:45:40;189.43;;;182.47;;
4268;SDS011;2148;48.554;7.834;2023-10-19T04:48:06;191.80;;;184.70;;
4268;SDS011;2148;48.554;7.834;2023-10-19T04:50:31;214.30;;;206.40;;
4268;SDS011;2148;48.554;7.834;2023-10-19T04:52:56;206.80;;;199.13;;
4268;SDS011;2148;48.554;7.834;2023-10-19T04:55:22;207.20;;;199.67;;
4268;SDS011;2148;48.554;7.834;2023-10-19T04:57:47;212.67;;;205.10;;
4268;SDS011;2148;48.554;7.834;2023-10-19T05:00:14;196.50;;;189.03;;
4268;SDS011;2148;48.554;7.834;2023-10-19T05:02:40;198.73;;;191.43;;
4268;SDS011;2148;48.554;7.834;2023-10-19T05:05:08;198.77;;;191.40;;
4268;SDS011;2148;48.554;7.834;2023-10-19T05:07:34;202.40;;;194.83;;
4268;SDS011;2148;48.554;7.834;2023-10-19T05:09:59;194.33;;;187.17;;
4268;SDS011;2148;48.554;7.834;2023-10-19T05:12:24;207.53;;;199.80;;
4268;SDS011;2148;48.554;7.834;2023-10-19T05:14:50;187.80;;;180.47;;
4268;SDS011;2148;48.554;7.834;2023-10-19T05:17:15;154.40;;;148.53;;
4268;SDS011;2148;48.554;7.834;2023-10-19T05:19:41;196.70;;;189.17;;
4268;SDS011;2148;48.554;7.834;2023-10-19T05:22:07;143.57;;;138.00;;
4268;SDS011;2148;48.554;7.834;2023-10-19T05:24:33;162.57;;;156.33;;
4268;SDS011;2148;48.554;7.834;2023-10-19T05:26:59;150.73;;;144.90;;
4268;SDS011;2148;48.554;7.834;2023-10-19T05:29:24;152.37;;;146.47;;
4268;SDS011;2148;48.554;7.834;2023-10-19T05:31:53;139.23;;;133.77;;
4268;SDS011;2148;48.554;7.834;2023-10-19T05:34:20;136.63;;;131.20;;
4268;SDS011;2148;48.554;7.834;2023-10-19T05:36:45;159.03;;;152.73;;
4268;SDS011;2148;48.554;7.834;2023-10-19T05:39:13;124.03;;;119.13;;
4268;SDS011;2148;48.554;7.834;2023-10-19T05:41:39;163.47;;;157.20;;
4268;SDS011;2148;48.554;7.834;2023-10-19T05:44:05;159.63;;;153.53;;
4268;SDS011;2148;48.554;7.834;2023-10-19T05:46:30;146.27;;;140.47;;
4268;SDS011;2148;48.554;7.834;2023-10-19T05:48:56;136.67;;;131.30;;
4268;SDS011;2148;48.554;7.834;2023-10-19T05:51:22;152.40;;;146.70;;
4268;SDS011;2148;48.554;7.834;2023-10-19T05:53:48;147.07;;;141.30;;
4268;SDS011;2148;48.554;7.834;2023-10-19T05:56:13;146.57;;;140.73;;
4268;SDS011;2148;48.554;7.834;2023-10-19T05:58:41;143.83;;;138.00;;
4268;SDS011;2148;48.554;7.834;2023-10-19T06:01:06;131.63;;;126.57;;
4268;SDS011;2148;48.554;7.834;2023-10-19T06:03:32;146.60;;;140.93;;
4268;SDS011;2148;48.554;7.834;2023-10-19T06:05:57;149.63;;;144.03;;
4268;SDS011;2148;48.554;7.834;2023-10-19T06:08:23;151.00;;;144.93;;
4268;SDS011;2148;48.554;7.834;2023-10-19T06:10:50;151.83;;;145.87;;
4268;SDS011;2148;48.554;7.834;2023-10-19T06:13:17;142.37;;;136.80;;
4268;SDS011;2148;48.554;7.834;2023-10-19T06:15:42;131.40;;;126.17;;
4268;SDS011;2148;48.554;7.834;2023-10-19T06:18:08;151.90;;;145.63;;
4268;SDS011;2148;48.554;7.834;2023-10-19T06:20:33;135.00;;;129.43;;
4268;SDS011;2148;48.554;7.834;2023-10-19T06:22:58;126.10;;;121.10;;
4268;SDS011;2148;48.554;7.834;2023-10-19T06:25:30;121.20;;;116.20;;
4268;SDS011;2148;48.554;7.834;2023-10-19T06:27:56;119.07;;;113.93;;
4268;SDS011;2148;48.554;7.834;2023-10-19T06:30:22;114.90;;;110.13;;
4268;SDS011;2148;48.554;7.834;2023-10-19T06:32:49;129.83;;;124.73;;
4268;SDS011;2148;48.554;7.834;2023-10-19T06:35:15;129.50;;;124.50;;
4268;SDS011;2148;48.554;7.834;2023-10-19T06:37:42;124.87;;;120.03;;
4268;SDS011;2148;48.554;7.834;2023-10-19T06:40:08;151.83;;;146.03;;
4268;SDS011;2148;48.554;7.834;2023-10-19T06:42:36;145.60;;;140.10;;
4268;SDS011;2148;48.554;7.834;2023-10-19T06:45:01;152.23;;;146.50;;
4268;SDS011;2148;48.554;7.834;2023-10-19T06:47:27;134.60;;;129.30;;
4268;SDS011;2148;48.554;7.834;2023-10-19T06:49:53;108.90;;;104.67;;
4268;SDS011;2148;48.554;7.834;2023-10-19T06:52:19;139.87;;;134.30;;
4268;SDS011;2148;48.554;7.834;2023-10-19T06:54:44;128.77;;;123.50;;
4268;SDS011;2148;48.554;7.834;2023-10-19T06:57:09;111.83;;;107.47;;
4268;SDS011;2148;48.554;7.834;2023-10-19T06:59:35;115.63;;;110.83;;
4268;SDS011;2148;48.554;7.834;2023-10-19T07:02:01;110.30;;;105.83;;
4268;SDS011;2148;48.554;7.834;2023-10-19T07:04:27;134.10;;;129.03;;
4268;SDS011;2148;48.554;7.834;2023-10-19T07:06:53;128.50;;;123.43;;
4268;SDS011;2148;48.554;7.834;2023-10-19T07:09:18;144.27;;;138.83;;
4268;SDS011;2148;48.554;7.834;2023-10-19T07:11:44;147.83;;;142.03;;
4268;SDS011;2148;48.554;7.834;2023-10-19T07:14:10;155.93;;;149.97;;
4268;SDS011;2148;48.554;7.834;2023-10-19T07:16:35;141.30;;;135.77;;
4268;SDS011;2148;48.554;7.834;2023-10-19T07:19:01;138.03;;;132.57;;
4268;SDS011;2148;48.554;7.834;2023-10-19T07:21:26;172.10;;;165.83;;
4268;SDS011;2148;48.554;7.834;2023-10-19T07:23:54;167.37;;;160.87;;
4268;SDS011;2148;48.554;7.834;2023-10-19T07:26:21;155.07;;;148.93;;
4268;SDS011;2148;48.554;7.834;2023-10-19T07:28:55;175.80;;;168.90;;
4268;SDS011;2148;48.554;7.834;2023-10-19T07:31:20;144.43;;;138.73;;
4268;SDS011;2148;48.554;7.834;2023-10-19T07:33:46;171.87;;;165.20;;
4268;SDS011;2148;48.554;7.834;2023-10-19T07:36:14;157.90;;;152.10;;
4268;SDS011;2148;48.554;7.834;2023-10-19T07:38:40;188.63;;;181.67;;
4268;SDS011;2148;48.554;7.834;2023-10-19T07:41:07;163.03;;;156.63;;
4268;SDS011;2148;48.554;7.834;2023-10-19T07:43:33;221.77;;;213.70;;
4268;SDS011;2148;48.554;7.834;2023-10-19T07:45:58;199.03;;;191.87;;
4268;SDS011;2148;48.554;7.834;2023-10-19T07:48:23;142.97;;;137.43;;
4268;SDS011;2148;48.554;7.834;2023-10-19T07:50:49;243.00;;;234.30;;
4268;SDS011;2148;48.554;7.834;2023-10-19T07:53:15;184.43;;;177.33;;
4268;SDS011;2148;48.554;7.834;2023-10-19T07:55:42;199.73;;;192.13;;
4268;SDS011;2148;48.554;7.834;2023-10-19T07:58:08;176.07;;;169.53;;
4268;SDS011;2148;48.554;7.834;2023-10-19T08:00:33;198.30;;;190.70;;
4268;SDS011;2148;48.554;7.834;2023-10-19T08:02:59;203.37;;;195.83;;
4268;SDS011;2148;48.554;7.834;2023-10-19T08:05:24;258.10;;;248.17;;
4268;SDS011;2148;48.554;7.834;2023-10-19T08:07:51;263.47;;;253.77;;
4268;SDS011;2148;48.554;7.834;2023-10-19T08:10:16;239.30;;;230.70;;
4268;SDS011;2148;48.554;7.834;2023-10-19T08:12:43;275.20;;;265.37;;
4268;SDS011;2148;48.554;7.834;2023-10-19T08:15:10;239.60;;;230.80;;
4268;SDS011;2148;48.554;7.834;2023-10-19T08:17:40;218.40;;;210.00;;
4268;SDS011;2148;48.554;7.834;2023-10-19T08:20:07;250.03;;;241.00;;
4268;SDS011;2148;48.554;7.834;2023-10-19T08:22:35;261.60;;;251.90;;
4268;SDS011;2148;48.554;7.834;2023-10-19T08:25:02;219.53;;;211.57;;
4268;SDS011;2148;48.554;7.834;2023-10-19T08:27:29;233.03;;;224.37;;
4268;SDS011;2148;48.554;7.834;2023-10-19T08:29:54;266.53;;;257.20;;
4268;SDS011;2148;48.554;7.834;2023-10-19T08:32:20;237.93;;;229.30;;
4268;SDS011;2148;48.554;7.834;2023-10-19T08:34:45;222.80;;;214.20;;
4268;SDS011;2148;48.554;7.834;2023-10-19T08:37:11;231.57;;;223.07;;
4268;SDS011;2148;48.554;7.834;2023-10-19T08:39:36;223.70;;;215.20;;
4268;SDS011;2148;48.554;7.834;2023-10-19T08:42:04;210.90;;;202.67;;
4268;SDS011;2148;48.554;7.834;2023-10-19T08:44:32;261.93;;;252.67;;
4268;SDS011;2148;48.554;7.834;2023-10-19T08:46:58;276.00;;;266.17;;
4268;SDS011;2148;48.554;7.834;2023-10-19T08:49:24;245.43;;;236.43;;
4268;SDS011;2148;48.554;7.834;2023-10-19T08:51:51;270.33;;;260.57;;
4268;SDS011;2148;48.554;7.834;2023-10-19T08:54:17;258.63;;;248.87;;
4268;SDS011;2148;48.554;7.834;2023-10-19T08:56:42;273.17;;;263.13;;
4268;SDS011;2148;48.554;7.834;2023-10-19T08:59:09;267.17;;;257.70;;
4268;SDS011;2148;48.554;7.834;2023-10-19T09:01:38;258.20;;;248.67;;
4268;SDS011;2148;48.554;7.834;2023-10-19T09:04:04;255.30;;;245.83;;
4268;SDS011;2148;48.554;7.834;2023-10-19T09:06:36;266.00;;;256.27;;
4268;SDS011;2148;48.554;7.834;2023-10-19T09:09:07;273.17;;;262.97;;
4268;SDS011;2148;48.554;7.834;2023-10-19T09:11:34;284.30;;;273.77;;
4268;SDS011;2148;48.554;7.834;2023-10-19T09:13:59;229.47;;;220.87;;
4268;SDS011;2148;48.554;7.834;2023-10-19T09:16:24;184.90;;;177.73;;
4268;SDS011;2148;48.554;7.834;2023-10-19T09:18:51;239.27;;;230.27;;
4268;SDS011;2148;48.554;7.834;2023-10-19T09:21:17;226.43;;;218.17;;
4268;SDS011;2148;48.554;7.834;2023-10-19T09:23:53;257.03;;;247.67;;
4268;SDS011;2148;48.554;7.834;2023-10-19T09:26:19;246.07;;;236.73;;
4268;SDS011;2148;48.554;7.834;2023-10-19T09:28:47;190.13;;;183.07;;
4268;SDS011;2148;48.554;7.834;2023-10-19T09:31:13;208.10;;;200.30;;
4268;SDS011;2148;48.554;7.834;2023-10-19T09:33:43;261.27;;;251.60;;
4268;SDS011;2148;48.554;7.834;2023-10-19T09:36:09;249.63;;;240.57;;
4268;SDS011;2148;48.554;7.834;2023-10-19T09:38:45;244.63;;;235.70;;
4268;SDS011;2148;48.554;7.834;2023-10-19T09:41:14;215.23;;;207.00;;
4268;SDS011;2148;48.554;7.834;2023-10-19T09:43:44;239.23;;;230.30;;
4268;SDS011;2148;48.554;7.834;2023-10-19T09:46:20;235.40;;;226.83;;
4268;SDS011;2148;48.554;7.834;2023-10-19T09:48:53;229.53;;;221.17;;
4268;SDS011;2148;48.554;7.834;2023-10-19T09:51:19;256.17;;;246.90;;
4268;SDS011;2148;48.554;7.834;2023-10-19T09:53:47;231.13;;;222.57;;
4268;SDS011;2148;48.554;7.834;2023-10-19T09:56:21;157.90;;;151.17;;
4268;SDS011;2148;48.554;7.834;2023-10-19T09:59:06;156.77;;;150.40;;
4268;SDS011;2148;48.554;7.834;2023-10-19T10:04:38;142.90;;;136.87;;
4268;SDS011;2148;48.554;7.834;2023-10-19T10:07:06;117.67;;;112.67;;
4268;SDS011;2148;48.554;7.834;2023-10-19T10:09:39;181.77;;;174.27;;
4268;SDS011;2148;48.554;7.834;2023-10-19T10:12:15;147.23;;;141.23;;
4268;SDS011;2148;48.554;7.834;2023-10-19T10:15:05;129.10;;;123.70;;
4268;SDS011;2148;48.554;7.834;2023-10-19T10:17:33;166.63;;;159.67;;
4268;SDS011;2148;48.554;7.834;2023-10-19T10:22:38;250.33;;;240.47;;
4268;SDS011;2148;48.554;7.834;2023-10-19T10:25:03;149.63;;;143.60;;
4268;SDS011;2148;48.554;7.834;2023-10-19T10:27:30;155.80;;;149.20;;
4268;SDS011;2148;48.554;7.834;2023-10-19T10:29:56;109.00;;;104.57;;
4268;SDS011;2148;48.554;7.834;2023-10-19T10:32:42;116.43;;;111.57;;
4268;SDS011;2148;48.554;7.834;2023-10-19T10:38:08;107.70;;;102.80;;
4268;SDS011;2148;48.554;7.834;2023-10-19T10:40:43;95.30;;;90.40;;
4268;SDS011;2148;48.554;7.834;2023-10-19T10:43:09;87.80;;;83.47;;
4268;SDS011;2148;48.554;7.834;2023-10-19T10:45:35;72.13;;;68.17;;
4268;SDS011;2148;48.554;7.834;2023-10-19T10:48:01;91.33;;;87.03;;
4268;SDS011;2148;48.554;7.834;2023-10-19T10:50:26;62.37;;;58.70;;
4268;SDS011;2148;48.554;7.834;2023-10-19T10:52:55;51.27;;;48.10;;
4268;SDS011;2148;48.554;7.834;2023-10-19T10:55:23;29.40;;;26.93;;
4268;SDS011;2148;48.554;7.834;2023-10-19T10:57:50;31.63;;;29.03;;
4268;SDS011;2148;48.554;7.834;2023-10-19T11:00:15;27.17;;;24.80;;
4268;SDS011;2148;48.554;7.834;2023-10-19T11:03:02;24.67;;;22.17;;
4268;SDS011;2148;48.554;7.834;2023-10-19T11:05:29;23.43;;;21.00;;
4268;SDS011;2148;48.554;7.834;2023-10-19T11:08:07;27.00;;;24.80;;
4268;SDS011;2148;48.554;7.834;2023-10-19T11:10:41;24.97;;;22.43;;
4268;SDS011;2148;48.554;7.834;2023-10-19T11:13:08;24.23;;;21.73;;
4268;SDS011;2148;48.554;7.834;2023-10-19T11:15:35;24.27;;;21.87;;
4268;SDS011;2148;48.554;7.834;2023-10-19T11:18:02;24.17;;;21.67;;
4268;SDS011;2148;48.554;7.834;2023-10-19T11:20:27;24.53;;;21.97;;
4268;SDS011;2148;48.554;7.834;2023-10-19T11:22:53;24.23;;;22.30;;
4268;SDS011;2148;48.554;7.834;2023-10-19T11:25:21;27.83;;;25.33;;
4268;SDS011;2148;48.554;7.834;2023-10-19T11:27:57;39.00;;;35.77;;
4268;SDS011;2148;48.554;7.834;2023-10-19T11:30:24;33.47;;;30.23;;
4268;SDS011;2148;48.554;7.834;2023-10-19T11:32:50;23.83;;;21.53;;
4268;SDS011;2148;48.554;7.834;2023-10-19T11:35:18;25.23;;;22.93;;
4268;SDS011;2148;48.554;7.834;2023-10-19T11:37:53;22.10;;;20.33;;
4268;SDS011;2148;48.554;7.834;2023-10-19T11:40:21;25.00;;;22.83;;
4268;SDS011;2148;48.554;7.834;2023-10-19T11:42:49;23.27;;;21.07;;
4268;SDS011;2148;48.554;7.834;2023-10-19T11:45:15;24.67;;;20.97;;
4268;SDS011;2148;48.554;7.834;2023-10-19T11:47:41;25.77;;;22.57;;
4268;SDS011;2148;48.554;7.834;2023-10-19T11:50:10;39.77;;;34.13;;
4268;SDS011;2148;48.554;7.834;2023-10-19T11:52:45;24.33;;;21.57;;
4268;SDS011;2148;48.554;7.834;2023-10-19T11:55:14;24.20;;;21.67;;
4268;SDS011;2148;48.554;7.834;2023-10-19T11:57:40;21.00;;;17.87;;
4268;SDS011;2148;48.554;7.834;2023-10-19T12:00:09;19.87;;;17.70;;
4268;SDS011;2148;48.554;7.834;2023-10-19T12:02:38;18.83;;;16.87;;
4268;SDS011;2148;48.554;7.834;2023-10-19T12:05:05;19.13;;;17.10;;
4268;SDS011;2148;48.554;7.834;2023-10-19T12:07:36;16.73;;;15.03;;
4268;SDS011;2148;48.554;7.834;2023-10-19T12:10:07;21.97;;;19.77;;
4268;SDS011;2148;48.554;7.834;2023-10-19T12:12:34;17.30;;;15.67;;
4268;SDS011;2148;48.554;7.834;2023-10-19T12:14:59;18.23;;;16.47;;
4268;SDS011;2148;48.554;7.834;2023-10-19T12:17:25;19.77;;;17.30;;
4268;SDS011;2148;48.554;7.834;2023-10-19T12:19:54;17.83;;;16.20;;
4268;SDS011;2148;48.554;7.834;2023-10-19T12:22:20;17.90;;;16.10;;
4268;SDS011;2148;48.554;7.834;2023-10-19T12:24:46;19.97;;;16.73;;
4268;SDS011;2148;48.554;7.834;2023-10-19T12:27:11;17.70;;;16.00;;
4268;SDS011;2148;48.554;7.834;2023-10-19T12:29:38;22.43;;;18.17;;
4268;SDS011;2148;48.554;7.834;2023-10-19T12:32:04;20.20;;;18.10;;
4268;SDS011;2148;48.554;7.834;2023-10-19T12:34:30;16.00;;;14.70;;
4268;SDS011;2148;48.554;7.834;2023-10-19T12:36:55;17.27;;;15.77;;
4268;SDS011;2148;48.554;7.834;2023-10-19T12:39:23;16.70;;;15.17;;
4268;SDS011;2148;48.554;7.834;2023-10-19T12:42:03;19.10;;;17.20;;
4268;SDS011;2148;48.554;7.834;2023-10-19T12:44:28;20.07;;;17.63;;
4268;SDS011;2148;48.554;7.834;2023-10-19T12:46:55;16.33;;;14.73;;
4268;SDS011;2148;48.554;7.834;2023-10-19T12:49:22;17.23;;;15.43;;
4268;SDS011;2148;48.554;7.834;2023-10-19T12:51:51;22.53;;;18.90;;
4268;SDS011;2148;48.554;7.834;2023-10-19T12:54:17;21.33;;;17.90;;
4268;SDS011;2148;48.554;7.834;2023-10-19T12:56:42;21.30;;;19.10;;
4268;SDS011;2148;48.554;7.834;2023-10-19T12:59:08;17.30;;;15.40;;
4268;SDS011;2148;48.554;7.834;2023-10-19T13:01:34;18.37;;;16.67;;
4268;SDS011;2148;48.554;7.834;2023-10-19T13:04:00;19.80;;;17.80;;
4268;SDS011;2148;48.554;7.834;2023-10-19T13:06:31;18.83;;;16.83;;
4268;SDS011;2148;48.554;7.834;2023-10-19T13:08:58;20.30;;;17.67;;
4268;SDS011;2148;48.554;7.834;2023-10-19T13:11:23;18.60;;;16.70;;
4268;SDS011;2148;48.554;7.834;2023-10-19T13:13:49;22.03;;;18.07;;
4268;SDS011;2148;48.554;7.834;2023-10-19T13:16:14;19.43;;;17.43;;
4268;SDS011;2148;48.554;7.834;2023-10-19T13:18:40;21.30;;;18.97;;
4268;SDS011;2148;48.554;7.834;2023-10-19T13:21:06;20.00;;;17.90;;
4268;SDS011;2148;48.554;7.834;2023-10-19T13:23:31;21.87;;;19.97;;
4268;SDS011;2148;48.554;7.834;2023-10-19T13:26:03;24.73;;;22.43;;
4268;SDS011;2148;48.554;7.834;2023-10-19T13:28:32;29.00;;;26.80;;
4268;SDS011;2148;48.554;7.834;2023-10-19T13:30:57;37.00;;;34.60;;
4268;SDS011;2148;48.554;7.834;2023-10-19T13:33:22;36.47;;;34.17;;
4268;SDS011;2148;48.554;7.834;2023-10-19T13:35:49;31.80;;;29.73;;
4268;SDS011;2148;48.554;7.834;2023-10-19T13:38:16;26.70;;;24.80;;
4268;SDS011;2148;48.554;7.834;2023-10-19T13:40:42;22.20;;;20.50;;
4268;SDS011;2148;48.554;7.834;2023-10-19T13:43:09;19.97;;;18.20;;
4268;SDS011;2148;48.554;7.834;2023-10-19T13:45:39;18.63;;;16.97;;
4268;SDS011;2148;48.554;7.834;2023-10-19T13:48:06;23.60;;;21.63;;
4268;SDS011;2148;48.554;7.834;2023-10-19T13:50:32;27.87;;;25.40;;
4268;SDS011;2148;48.554;7.834;2023-10-19T13:52:58;22.63;;;20.80;;
4268;SDS011;2148;48.554;7.834;2023-10-19T13:55:30;21.37;;;19.53;;
4268;SDS011;2148;48.554;7.834;2023-10-19T13:57:56;19.97;;;18.20;;
4268;SDS011;2148;48.554;7.834;2023-10-19T14:00:22;19.03;;;17.23;;
4268;SDS011;2148;48.554;7.834;2023-10-19T14:03:00;17.90;;;16.20;;
4268;SDS011;2148;48.554;7.834;2023-10-19T14:05:30;17.53;;;16.03;;
4268;SDS011;2148;48.554;7.834;2023-10-19T14:08:01;14.43;;;13.13;;
4268;SDS011;2148;48.554;7.834;2023-10-19T14:10:26;13.87;;;12.77;;
4268;SDS011;2148;48.554;7.834;2023-10-19T14:12:53;13.50;;;12.40;;
4268;SDS011;2148;48.554;7.834;2023-10-19T14:15:18;13.17;;;12.10;;
4268;SDS011;2148;48.554;7.834;2023-10-19T14:17:45;14.77;;;13.47;;
4268;SDS011;2148;48.554;7.834;2023-10-19T14:20:12;16.47;;;14.97;;
4268;SDS011;2148;48.554;7.834;2023-10-19T14:22:41;17.03;;;15.60;;
4268;SDS011;2148;48.554;7.834;2023-10-19T14:25:08;15.47;;;14.30;;
4268;SDS011;2148;48.554;7.834;2023-10-19T14:27:37;17.23;;;15.87;;
4268;SDS011;2148;48.554;7.834;2023-10-19T14:30:09;14.77;;;13.67;;
4268;SDS011;2148;48.554;7.834;2023-10-19T14:32:42;13.00;;;11.80;;
4268;SDS011;2148;48.554;7.834;2023-10-19T14:35:09;11.17;;;10.23;;
4268;SDS011;2148;48.554;7.834;2023-10-19T14:37:40;12.53;;;11.57;;
4268;SDS011;2148;48.554;7.834;2023-10-19T14:40:12;11.70;;;10.80;;
4268;SDS011;2148;48.554;7.834;2023-10-19T14:42:41;11.70;;;10.87;;
4268;SDS011;2148;48.554;7.834;2023-10-19T14:45:10;13.87;;;12.57;;
4268;SDS011;2148;48.554;7.834;2023-10-19T14:47:39;17.10;;;15.83;;